sensor_id;sensor_type;location;lat;lon;timestamp;P1;durP1;ratioP1;P2;durP2;ratioP2
4202;SDS011;2115;51.038;7.006;2023-07-20T00:01:11;713.97;;;388.33;;
4202;SDS011;2115;51.038;7.006;2023-07-20T00:03:37;708.67;;;393.27;;
4202;SDS011;2115;51.038;7.006;2023-07-20T00:06:02;722.93;;;396.53;;
4202;SDS011;2115;51.038;7.006;2023-07-20T00:08:29;708.73;;;395.50;;
4202;SDS011;2115;51.038;7.006;2023-07-20T00:10:55;703.93;;;375.67;;
4202;SDS011;2115;51.038;7.006;2023-07-20T00:13:21;708.93;;;380.97;;
4202;SDS011;2115;51.038;7.006;2023-07-20T00:15:46;717.93;;;404.27;;
4202;SDS011;2115;51.038;7.006;2023-07-20T00:18:12;708.43;;;371.40;;
4202;SDS011;2115;51.038;7.006;2023-07-20T00:20:38;702.37;;;374.63;;
4202;SDS011;2115;51.038;7.006;2023-07-20T00:23:04;705.40;;;355.90;;
4202;SDS011;2115;51.038;7.006;2023-07-20T00:25:30;708.90;;;385.40;;
4202;SDS011;2115;51.038;7.006;2023-07-20T00:27:56;704.07;;;379.20;;
4202;SDS011;2115;51.038;7.006;2023-07-20T00:30:21;719.10;;;384.30;;
4202;SDS011;2115;51.038;7.006;2023-07-20T00:32:47;720.13;;;401.37;;
4202;SDS011;2115;51.038;7.006;2023-07-20T00:35:12;703.60;;;378.40;;
4202;SDS011;2115;51.038;7.006;2023-07-20T00:37:38;708.83;;;400.37;;
4202;SDS011;2115;51.038;7.006;2023-07-20T00:40:04;714.80;;;403.37;;
4202;SDS011;2115;51.038;7.006;2023-07-20T00:42:32;718.13;;;415.00;;
4202;SDS011;2115;51.038;7.006;2023-07-20T00:44:58;717.83;;;421.60;;
4202;SDS011;2115;51.038;7.006;2023-07-20T00:47:23;702.07;;;370.17;;
4202;SDS011;2115;51.038;7.006;2023-07-20T00:49:48;697.33;;;363.30;;
4202;SDS011;2115;51.038;7.006;2023-07-20T00:52:16;711.03;;;383.70;;
4202;SDS011;2115;51.038;7.006;2023-07-20T00:54:41;720.90;;;414.37;;
4202;SDS011;2115;51.038;7.006;2023-07-20T00:57:07;714.30;;;413.23;;
4202;SDS011;2115;51.038;7.006;2023-07-20T00:59:36;716.53;;;411.67;;
4202;SDS011;2115;51.038;7.006;2023-07-20T01:02:02;713.83;;;394.83;;
4202;SDS011;2115;51.038;7.006;2023-07-20T01:04:27;707.00;;;390.87;;
4202;SDS011;2115;51.038;7.006;2023-07-20T01:07:06;705.10;;;396.73;;
4202;SDS011;2115;51.038;7.006;2023-07-20T01:09:42;706.47;;;399.70;;
4202;SDS011;2115;51.038;7.006;2023-07-20T01:12:25;703.03;;;385.83;;
4202;SDS011;2115;51.038;7.006;2023-07-20T01:14:53;721.87;;;425.47;;
4202;SDS011;2115;51.038;7.006;2023-07-20T01:17:19;716.10;;;384.73;;
4202;SDS011;2115;51.038;7.006;2023-07-20T01:19:44;709.97;;;396.63;;
4202;SDS011;2115;51.038;7.006;2023-07-20T01:30:36;707.73;;;373.97;;
4202;SDS011;2115;51.038;7.006;2023-07-20T01:33:05;708.30;;;370.57;;
4202;SDS011;2115;51.038;7.006;2023-07-20T01:35:32;697.40;;;362.50;;
4202;SDS011;2115;51.038;7.006;2023-07-20T01:37:59;711.40;;;407.33;;
4202;SDS011;2115;51.038;7.006;2023-07-20T01:40:24;711.87;;;401.47;;
4202;SDS011;2115;51.038;7.006;2023-07-20T01:42:51;699.80;;;375.90;;
4202;SDS011;2115;51.038;7.006;2023-07-20T01:45:17;700.67;;;361.20;;
4202;SDS011;2115;51.038;7.006;2023-07-20T01:47:42;698.40;;;392.70;;
4202;SDS011;2115;51.038;7.006;2023-07-20T01:50:08;693.00;;;358.63;;
4202;SDS011;2115;51.038;7.006;2023-07-20T01:52:34;699.70;;;376.87;;
4202;SDS011;2115;51.038;7.006;2023-07-20T01:55:00;697.77;;;381.47;;
4202;SDS011;2115;51.038;7.006;2023-07-20T01:57:25;705.97;;;399.57;;
4202;SDS011;2115;51.038;7.006;2023-07-20T01:59:51;698.13;;;375.43;;
4202;SDS011;2115;51.038;7.006;2023-07-20T02:02:16;692.73;;;387.50;;
4202;SDS011;2115;51.038;7.006;2023-07-20T02:04:43;689.07;;;374.40;;
4202;SDS011;2115;51.038;7.006;2023-07-20T02:07:08;704.37;;;406.83;;
4202;SDS011;2115;51.038;7.006;2023-07-20T02:09:34;687.07;;;350.03;;
4202;SDS011;2115;51.038;7.006;2023-07-20T02:11:59;692.07;;;360.23;;
4202;SDS011;2115;51.038;7.006;2023-07-20T02:14:25;696.67;;;353.90;;
4202;SDS011;2115;51.038;7.006;2023-07-20T02:16:51;692.50;;;346.60;;
4202;SDS011;2115;51.038;7.006;2023-07-20T02:19:17;696.70;;;388.43;;
4202;SDS011;2115;51.038;7.006;2023-07-20T02:21:43;700.90;;;382.50;;
4202;SDS011;2115;51.038;7.006;2023-07-20T02:24:09;708.20;;;383.60;;
4202;SDS011;2115;51.038;7.006;2023-07-20T02:26:34;695.33;;;373.33;;
4202;SDS011;2115;51.038;7.006;2023-07-20T02:29:00;705.13;;;397.40;;
4202;SDS011;2115;51.038;7.006;2023-07-20T02:31:25;703.90;;;380.50;;
4202;SDS011;2115;51.038;7.006;2023-07-20T02:33:50;704.10;;;353.53;;
4202;SDS011;2115;51.038;7.006;2023-07-20T02:36:16;691.40;;;364.50;;
4202;SDS011;2115;51.038;7.006;2023-07-20T02:38:42;689.47;;;353.40;;
4202;SDS011;2115;51.038;7.006;2023-07-20T02:41:07;689.30;;;365.47;;
4202;SDS011;2115;51.038;7.006;2023-07-20T02:43:33;681.97;;;350.20;;
4202;SDS011;2115;51.038;7.006;2023-07-20T02:45:58;682.63;;;351.90;;
4202;SDS011;2115;51.038;7.006;2023-07-20T02:48:24;685.20;;;348.60;;
4202;SDS011;2115;51.038;7.006;2023-07-20T02:50:49;693.00;;;342.97;;
4202;SDS011;2115;51.038;7.006;2023-07-20T02:53:14;681.77;;;339.37;;
4202;SDS011;2115;51.038;7.006;2023-07-20T02:55:40;684.70;;;340.83;;
4202;SDS011;2115;51.038;7.006;2023-07-20T02:58:05;678.07;;;333.10;;
4202;SDS011;2115;51.038;7.006;2023-07-20T03:00:31;676.43;;;312.93;;
4202;SDS011;2115;51.038;7.006;2023-07-20T03:02:56;681.80;;;328.70;;
4202;SDS011;2115;51.038;7.006;2023-07-20T03:05:22;680.70;;;323.00;;
4202;SDS011;2115;51.038;7.006;2023-07-20T03:07:50;681.47;;;345.87;;
4202;SDS011;2115;51.038;7.006;2023-07-20T03:10:16;685.27;;;326.53;;
4202;SDS011;2115;51.038;7.006;2023-07-20T03:12:42;686.17;;;358.53;;
4202;SDS011;2115;51.038;7.006;2023-07-20T03:15:07;691.33;;;349.03;;
4202;SDS011;2115;51.038;7.006;2023-07-20T03:17:33;685.93;;;340.17;;
4202;SDS011;2115;51.038;7.006;2023-07-20T03:19:59;691.40;;;348.20;;
4202;SDS011;2115;51.038;7.006;2023-07-20T03:22:25;689.93;;;340.33;;
4202;SDS011;2115;51.038;7.006;2023-07-20T03:24:51;686.23;;;350.50;;
4202;SDS011;2115;51.038;7.006;2023-07-20T03:27:17;681.63;;;343.97;;
4202;SDS011;2115;51.038;7.006;2023-07-20T03:29:43;700.33;;;370.60;;
4202;SDS011;2115;51.038;7.006;2023-07-20T03:32:09;695.53;;;336.53;;
4202;SDS011;2115;51.038;7.006;2023-07-20T03:34:35;689.13;;;358.63;;
4202;SDS011;2115;51.038;7.006;2023-07-20T03:37:00;705.23;;;359.37;;
4202;SDS011;2115;51.038;7.006;2023-07-20T03:39:26;712.97;;;376.73;;
4202;SDS011;2115;51.038;7.006;2023-07-20T03:41:52;692.67;;;330.53;;
4202;SDS011;2115;51.038;7.006;2023-07-20T03:44:17;681.40;;;321.23;;
4202;SDS011;2115;51.038;7.006;2023-07-20T03:46:43;690.93;;;353.37;;
4202;SDS011;2115;51.038;7.006;2023-07-20T03:49:08;684.87;;;329.77;;
4202;SDS011;2115;51.038;7.006;2023-07-20T03:51:35;677.77;;;301.53;;
4202;SDS011;2115;51.038;7.006;2023-07-20T03:54:00;681.77;;;327.50;;
4202;SDS011;2115;51.038;7.006;2023-07-20T03:56:27;683.97;;;340.63;;
4202;SDS011;2115;51.038;7.006;2023-07-20T03:58:52;674.63;;;307.70;;
4202;SDS011;2115;51.038;7.006;2023-07-20T04:01:18;683.50;;;337.50;;
4202;SDS011;2115;51.038;7.006;2023-07-20T04:03:43;690.07;;;318.40;;
4202;SDS011;2115;51.038;7.006;2023-07-20T04:06:09;689.63;;;322.03;;
4202;SDS011;2115;51.038;7.006;2023-07-20T04:08:35;688.50;;;335.43;;
4202;SDS011;2115;51.038;7.006;2023-07-20T04:11:01;672.73;;;304.83;;
4202;SDS011;2115;51.038;7.006;2023-07-20T04:13:27;689.60;;;324.20;;
4202;SDS011;2115;51.038;7.006;2023-07-20T04:15:53;696.23;;;345.73;;
4202;SDS011;2115;51.038;7.006;2023-07-20T04:18:18;705.00;;;360.87;;
4202;SDS011;2115;51.038;7.006;2023-07-20T04:20:44;721.57;;;372.40;;
4202;SDS011;2115;51.038;7.006;2023-07-20T04:23:10;694.43;;;357.33;;
4202;SDS011;2115;51.038;7.006;2023-07-20T04:25:35;697.17;;;361.73;;
4202;SDS011;2115;51.038;7.006;2023-07-20T04:28:04;697.53;;;348.83;;
4202;SDS011;2115;51.038;7.006;2023-07-20T04:30:33;688.63;;;325.90;;
4202;SDS011;2115;51.038;7.006;2023-07-20T04:32:59;682.77;;;344.00;;
4202;SDS011;2115;51.038;7.006;2023-07-20T04:35:45;696.33;;;352.67;;
4202;SDS011;2115;51.038;7.006;2023-07-20T04:38:14;682.40;;;336.03;;
4202;SDS011;2115;51.038;7.006;2023-07-20T04:40:42;677.97;;;322.80;;
4202;SDS011;2115;51.038;7.006;2023-07-20T04:43:11;677.90;;;325.50;;
4202;SDS011;2115;51.038;7.006;2023-07-20T04:45:36;697.33;;;358.13;;
4202;SDS011;2115;51.038;7.006;2023-07-20T04:48:02;680.57;;;315.07;;
4202;SDS011;2115;51.038;7.006;2023-07-20T04:50:29;684.23;;;326.90;;
4202;SDS011;2115;51.038;7.006;2023-07-20T04:52:54;690.80;;;313.03;;
4202;SDS011;2115;51.038;7.006;2023-07-20T04:55:20;688.17;;;317.80;;
4202;SDS011;2115;51.038;7.006;2023-07-20T04:57:45;686.80;;;335.87;;
4202;SDS011;2115;51.038;7.006;2023-07-20T05:00:11;695.53;;;363.97;;
4202;SDS011;2115;51.038;7.006;2023-07-20T05:02:38;682.00;;;338.80;;
4202;SDS011;2115;51.038;7.006;2023-07-20T05:05:04;682.70;;;353.57;;
4202;SDS011;2115;51.038;7.006;2023-07-20T05:07:32;699.00;;;372.63;;
4202;SDS011;2115;51.038;7.006;2023-07-20T05:09:58;688.93;;;350.93;;
4202;SDS011;2115;51.038;7.006;2023-07-20T05:12:24;686.57;;;336.23;;
4202;SDS011;2115;51.038;7.006;2023-07-20T05:14:49;683.60;;;334.40;;
4202;SDS011;2115;51.038;7.006;2023-07-20T05:17:14;684.70;;;337.87;;
4202;SDS011;2115;51.038;7.006;2023-07-20T05:19:40;689.37;;;349.37;;
4202;SDS011;2115;51.038;7.006;2023-07-20T05:22:05;685.33;;;340.47;;
4202;SDS011;2115;51.038;7.006;2023-07-20T05:24:31;712.07;;;355.17;;
4202;SDS011;2115;51.038;7.006;2023-07-20T05:26:57;708.80;;;370.43;;
4202;SDS011;2115;51.038;7.006;2023-07-20T05:29:24;696.53;;;356.07;;
4202;SDS011;2115;51.038;7.006;2023-07-20T05:31:50;697.83;;;349.93;;
4202;SDS011;2115;51.038;7.006;2023-07-20T05:34:15;690.40;;;366.07;;
4202;SDS011;2115;51.038;7.006;2023-07-20T05:36:41;686.17;;;343.43;;
4202;SDS011;2115;51.038;7.006;2023-07-20T05:39:07;700.10;;;346.83;;
4202;SDS011;2115;51.038;7.006;2023-07-20T05:41:32;687.30;;;347.67;;
4202;SDS011;2115;51.038;7.006;2023-07-20T05:43:58;704.63;;;384.53;;
4202;SDS011;2115;51.038;7.006;2023-07-20T05:46:23;698.73;;;353.43;;
4202;SDS011;2115;51.038;7.006;2023-07-20T05:48:49;693.10;;;351.00;;
4202;SDS011;2115;51.038;7.006;2023-07-20T05:51:15;701.73;;;356.07;;
4202;SDS011;2115;51.038;7.006;2023-07-20T05:53:40;699.27;;;369.67;;
4202;SDS011;2115;51.038;7.006;2023-07-20T05:56:06;692.87;;;361.43;;
4202;SDS011;2115;51.038;7.006;2023-07-20T05:58:35;694.33;;;351.30;;
4202;SDS011;2115;51.038;7.006;2023-07-20T06:01:00;691.60;;;356.50;;
4202;SDS011;2115;51.038;7.006;2023-07-20T06:03:27;689.30;;;350.67;;
4202;SDS011;2115;51.038;7.006;2023-07-20T06:05:57;689.83;;;361.10;;
4202;SDS011;2115;51.038;7.006;2023-07-20T06:08:24;696.20;;;347.30;;
4202;SDS011;2115;51.038;7.006;2023-07-20T06:10:50;680.97;;;330.83;;
4202;SDS011;2115;51.038;7.006;2023-07-20T06:13:17;703.97;;;375.27;;
4202;SDS011;2115;51.038;7.006;2023-07-20T06:15:42;686.07;;;345.17;;
4202;SDS011;2115;51.038;7.006;2023-07-20T06:18:08;684.97;;;340.03;;
4202;SDS011;2115;51.038;7.006;2023-07-20T06:20:34;704.80;;;359.00;;
4202;SDS011;2115;51.038;7.006;2023-07-20T06:22:59;691.97;;;354.93;;
4202;SDS011;2115;51.038;7.006;2023-07-20T06:25:25;705.63;;;369.50;;
4202;SDS011;2115;51.038;7.006;2023-07-20T06:27:51;703.53;;;379.47;;
4202;SDS011;2115;51.038;7.006;2023-07-20T06:30:23;710.93;;;383.80;;
4202;SDS011;2115;51.038;7.006;2023-07-20T06:32:49;708.10;;;391.37;;
4202;SDS011;2115;51.038;7.006;2023-07-20T06:35:14;689.40;;;357.33;;
4202;SDS011;2115;51.038;7.006;2023-07-20T06:37:40;699.83;;;371.07;;
4202;SDS011;2115;51.038;7.006;2023-07-20T06:40:06;699.77;;;388.93;;
4202;SDS011;2115;51.038;7.006;2023-07-20T06:42:34;699.07;;;362.27;;
4202;SDS011;2115;51.038;7.006;2023-07-20T06:44:59;704.50;;;385.37;;
4202;SDS011;2115;51.038;7.006;2023-07-20T06:47:24;706.87;;;383.57;;
4202;SDS011;2115;51.038;7.006;2023-07-20T06:49:50;698.63;;;379.40;;
4202;SDS011;2115;51.038;7.006;2023-07-20T06:52:15;705.07;;;387.17;;
4202;SDS011;2115;51.038;7.006;2023-07-20T06:54:41;720.80;;;415.60;;
4202;SDS011;2115;51.038;7.006;2023-07-20T06:57:07;711.50;;;389.27;;
4202;SDS011;2115;51.038;7.006;2023-07-20T06:59:32;718.17;;;429.77;;
4202;SDS011;2115;51.038;7.006;2023-07-20T07:01:57;709.77;;;400.90;;
4202;SDS011;2115;51.038;7.006;2023-07-20T07:04:23;716.30;;;411.60;;
4202;SDS011;2115;51.038;7.006;2023-07-20T07:06:48;725.30;;;430.13;;
4202;SDS011;2115;51.038;7.006;2023-07-20T07:09:14;710.77;;;429.23;;
4202;SDS011;2115;51.038;7.006;2023-07-20T07:11:39;716.27;;;427.63;;
4202;SDS011;2115;51.038;7.006;2023-07-20T07:14:05;720.40;;;448.93;;
4202;SDS011;2115;51.038;7.006;2023-07-20T07:16:30;712.43;;;426.50;;
4202;SDS011;2115;51.038;7.006;2023-07-20T07:18:56;703.63;;;399.60;;
4202;SDS011;2115;51.038;7.006;2023-07-20T07:21:21;713.00;;;416.77;;
4202;SDS011;2115;51.038;7.006;2023-07-20T07:23:47;712.87;;;426.50;;
4202;SDS011;2115;51.038;7.006;2023-07-20T07:26:13;707.33;;;402.83;;
4202;SDS011;2115;51.038;7.006;2023-07-20T07:28:38;705.67;;;414.90;;
4202;SDS011;2115;51.038;7.006;2023-07-20T07:31:04;704.53;;;399.57;;
4202;SDS011;2115;51.038;7.006;2023-07-20T07:33:30;719.27;;;417.20;;
4202;SDS011;2115;51.038;7.006;2023-07-20T07:35:56;713.57;;;439.90;;
4202;SDS011;2115;51.038;7.006;2023-07-20T07:38:21;712.97;;;421.97;;
4202;SDS011;2115;51.038;7.006;2023-07-20T07:40:47;711.30;;;420.67;;
4202;SDS011;2115;51.038;7.006;2023-07-20T07:43:13;719.80;;;453.13;;
4202;SDS011;2115;51.038;7.006;2023-07-20T07:45:39;721.50;;;450.07;;
4202;SDS011;2115;51.038;7.006;2023-07-20T07:48:05;719.80;;;435.83;;
4202;SDS011;2115;51.038;7.006;2023-07-20T07:50:31;707.93;;;425.00;;
4202;SDS011;2115;51.038;7.006;2023-07-20T07:52:57;715.60;;;441.13;;
4202;SDS011;2115;51.038;7.006;2023-07-20T07:55:22;721.70;;;444.20;;
4202;SDS011;2115;51.038;7.006;2023-07-20T07:57:48;707.10;;;421.00;;
4202;SDS011;2115;51.038;7.006;2023-07-20T08:00:14;713.63;;;418.80;;
4202;SDS011;2115;51.038;7.006;2023-07-20T08:02:40;719.67;;;438.80;;
4202;SDS011;2115;51.038;7.006;2023-07-20T08:05:07;710.73;;;416.90;;
4202;SDS011;2115;51.038;7.006;2023-07-20T08:07:33;715.40;;;449.40;;
4202;SDS011;2115;51.038;7.006;2023-07-20T08:09:58;713.13;;;448.10;;
4202;SDS011;2115;51.038;7.006;2023-07-20T08:12:25;719.70;;;461.63;;
4202;SDS011;2115;51.038;7.006;2023-07-20T08:14:51;720.00;;;461.13;;
4202;SDS011;2115;51.038;7.006;2023-07-20T08:17:16;706.43;;;414.60;;
4202;SDS011;2115;51.038;7.006;2023-07-20T08:19:42;709.60;;;426.63;;
4202;SDS011;2115;51.038;7.006;2023-07-20T08:22:09;715.27;;;437.37;;
4202;SDS011;2115;51.038;7.006;2023-07-20T08:24:35;707.00;;;416.70;;
4202;SDS011;2115;51.038;7.006;2023-07-20T08:27:00;706.20;;;422.63;;
4202;SDS011;2115;51.038;7.006;2023-07-20T08:29:26;705.43;;;416.53;;
4202;SDS011;2115;51.038;7.006;2023-07-20T08:31:51;707.93;;;411.97;;
4202;SDS011;2115;51.038;7.006;2023-07-20T08:34:16;704.63;;;402.60;;
4202;SDS011;2115;51.038;7.006;2023-07-20T08:36:42;708.10;;;412.07;;
4202;SDS011;2115;51.038;7.006;2023-07-20T08:39:07;700.60;;;406.13;;
4202;SDS011;2115;51.038;7.006;2023-07-20T08:41:34;716.57;;;462.37;;
4202;SDS011;2115;51.038;7.006;2023-07-20T08:43:59;718.47;;;451.03;;
4202;SDS011;2115;51.038;7.006;2023-07-20T08:46:26;710.07;;;413.73;;
4202;SDS011;2115;51.038;7.006;2023-07-20T08:48:52;708.30;;;415.10;;
4202;SDS011;2115;51.038;7.006;2023-07-20T08:51:18;710.70;;;441.20;;
4202;SDS011;2115;51.038;7.006;2023-07-20T08:53:45;713.63;;;463.77;;
4202;SDS011;2115;51.038;7.006;2023-07-20T08:56:11;720.17;;;460.33;;
4202;SDS011;2115;51.038;7.006;2023-07-20T08:58:37;717.97;;;483.70;;
4202;SDS011;2115;51.038;7.006;2023-07-20T09:01:03;719.93;;;482.03;;
4202;SDS011;2115;51.038;7.006;2023-07-20T09:03:28;722.00;;;490.20;;
4202;SDS011;2115;51.038;7.006;2023-07-20T09:05:54;721.77;;;495.13;;
4202;SDS011;2115;51.038;7.006;2023-07-20T09:08:19;727.90;;;519.73;;
4202;SDS011;2115;51.038;7.006;2023-07-20T09:10:45;731.40;;;520.70;;
4202;SDS011;2115;51.038;7.006;2023-07-20T09:13:13;729.27;;;509.90;;
4202;SDS011;2115;51.038;7.006;2023-07-20T09:15:42;728.17;;;493.73;;
4202;SDS011;2115;51.038;7.006;2023-07-20T09:18:23;725.57;;;500.37;;
4202;SDS011;2115;51.038;7.006;2023-07-20T09:20:49;723.97;;;508.20;;
4202;SDS011;2115;51.038;7.006;2023-07-20T09:23:15;725.73;;;509.47;;
4202;SDS011;2115;51.038;7.006;2023-07-20T09:25:41;735.13;;;533.50;;
4202;SDS011;2115;51.038;7.006;2023-07-20T09:28:06;742.97;;;559.23;;
4202;SDS011;2115;51.038;7.006;2023-07-20T09:30:32;763.73;;;559.37;;
4202;SDS011;2115;51.038;7.006;2023-07-20T09:32:57;746.90;;;574.07;;
4202;SDS011;2115;51.038;7.006;2023-07-20T09:35:23;743.93;;;560.03;;
4202;SDS011;2115;51.038;7.006;2023-07-20T09:37:49;743.97;;;568.53;;
4202;SDS011;2115;51.038;7.006;2023-07-20T09:40:19;745.20;;;563.43;;
4202;SDS011;2115;51.038;7.006;2023-07-20T09:42:45;742.03;;;546.03;;
4202;SDS011;2115;51.038;7.006;2023-07-20T09:45:11;731.57;;;538.10;;
4202;SDS011;2115;51.038;7.006;2023-07-20T09:47:37;732.83;;;540.00;;
4202;SDS011;2115;51.038;7.006;2023-07-20T09:50:03;735.93;;;572.20;;
4202;SDS011;2115;51.038;7.006;2023-07-20T09:52:29;748.30;;;579.97;;
4202;SDS011;2115;51.038;7.006;2023-07-20T09:54:55;729.97;;;552.13;;
4202;SDS011;2115;51.038;7.006;2023-07-20T09:57:21;726.10;;;514.53;;
4202;SDS011;2115;51.038;7.006;2023-07-20T09:59:47;739.37;;;584.47;;
4202;SDS011;2115;51.038;7.006;2023-07-20T10:02:46;740.70;;;575.33;;
4202;SDS011;2115;51.038;7.006;2023-07-20T10:05:13;745.53;;;584.90;;
4202;SDS011;2115;51.038;7.006;2023-07-20T10:07:43;746.83;;;610.97;;
4202;SDS011;2115;51.038;7.006;2023-07-20T10:10:11;736.40;;;566.90;;
4202;SDS011;2115;51.038;7.006;2023-07-20T10:12:39;753.97;;;620.13;;
4202;SDS011;2115;51.038;7.006;2023-07-20T10:15:09;756.43;;;650.27;;
4202;SDS011;2115;51.038;7.006;2023-07-20T10:17:37;755.97;;;643.57;;
4202;SDS011;2115;51.038;7.006;2023-07-20T10:20:17;760.03;;;655.93;;
4202;SDS011;2115;51.038;7.006;2023-07-20T10:22:45;752.13;;;621.77;;
4202;SDS011;2115;51.038;7.006;2023-07-20T10:25:13;755.13;;;642.93;;
4202;SDS011;2115;51.038;7.006;2023-07-20T10:27:39;747.63;;;597.53;;
4202;SDS011;2115;51.038;7.006;2023-07-20T10:30:05;760.00;;;611.17;;
4202;SDS011;2115;51.038;7.006;2023-07-20T10:32:31;757.77;;;606.50;;
4202;SDS011;2115;51.038;7.006;2023-07-20T10:34:57;752.87;;;582.80;;
4202;SDS011;2115;51.038;7.006;2023-07-20T10:38:07;777.87;;;621.50;;
4202;SDS011;2115;51.038;7.006;2023-07-20T10:40:25;754.63;;;599.83;;
4202;SDS011;2115;51.038;7.006;2023-07-20T10:42:56;750.07;;;570.90;;
4202;SDS011;2115;51.038;7.006;2023-07-20T10:45:36;746.57;;;588.70;;
4202;SDS011;2115;51.038;7.006;2023-07-20T10:48:05;747.10;;;595.20;;
4202;SDS011;2115;51.038;7.006;2023-07-20T10:50:33;758.47;;;650.67;;
4202;SDS011;2115;51.038;7.006;2023-07-20T10:53:09;767.77;;;678.30;;
4202;SDS011;2115;51.038;7.006;2023-07-20T10:55:42;765.83;;;676.73;;
4202;SDS011;2115;51.038;7.006;2023-07-20T10:58:09;756.70;;;662.67;;
4202;SDS011;2115;51.038;7.006;2023-07-20T11:00:56;761.60;;;674.53;;
4202;SDS011;2115;51.038;7.006;2023-07-20T11:03:31;761.63;;;647.73;;
4202;SDS011;2115;51.038;7.006;2023-07-20T11:06:29;781.40;;;696.33;;
4202;SDS011;2115;51.038;7.006;2023-07-20T11:08:54;821.70;;;735.43;;
4202;SDS011;2115;51.038;7.006;2023-07-20T11:11:22;811.03;;;725.70;;
4202;SDS011;2115;51.038;7.006;2023-07-20T11:13:56;832.57;;;746.90;;
4202;SDS011;2115;51.038;7.006;2023-07-20T11:16:35;846.90;;;760.60;;
4202;SDS011;2115;51.038;7.006;2023-07-20T11:19:17;849.00;;;762.30;;
4202;SDS011;2115;51.038;7.006;2023-07-20T11:21:44;879.30;;;792.13;;
4202;SDS011;2115;51.038;7.006;2023-07-20T11:24:11;872.30;;;785.23;;
4202;SDS011;2115;51.038;7.006;2023-07-20T11:29:06;853.83;;;767.63;;
4202;SDS011;2115;51.038;7.006;2023-07-20T11:31:34;854.83;;;768.47;;
4202;SDS011;2115;51.038;7.006;2023-07-20T11:34:01;893.17;;;804.87;;
4202;SDS011;2115;51.038;7.006;2023-07-20T11:36:26;921.07;;;831.67;;
4202;SDS011;2115;51.038;7.006;2023-07-20T11:38:52;971.63;;;880.63;;
4202;SDS011;2115;51.038;7.006;2023-07-20T11:41:19;970.53;;;879.97;;
4202;SDS011;2115;51.038;7.006;2023-07-20T11:43:45;965.73;;;875.53;;
4202;SDS011;2115;51.038;7.006;2023-07-20T11:46:10;959.80;;;869.30;;
4202;SDS011;2115;51.038;7.006;2023-07-20T11:48:36;992.43;;;899.37;;
4202;SDS011;2115;51.038;7.006;2023-07-20T11:51:01;965.33;;;872.93;;
4202;SDS011;2115;51.038;7.006;2023-07-20T11:53:27;979.37;;;885.97;;
4202;SDS011;2115;51.038;7.006;2023-07-20T11:55:53;981.27;;;888.40;;
4202;SDS011;2115;51.038;7.006;2023-07-20T11:58:18;885.83;;;796.00;;
4202;SDS011;2115;51.038;7.006;2023-07-20T12:00:44;868.00;;;779.80;;
4202;SDS011;2115;51.038;7.006;2023-07-20T12:03:11;879.10;;;789.40;;
4202;SDS011;2115;51.038;7.006;2023-07-20T12:05:40;849.77;;;761.80;;
4202;SDS011;2115;51.038;7.006;2023-07-20T12:08:06;845.27;;;757.87;;
4202;SDS011;2115;51.038;7.006;2023-07-20T12:10:31;850.80;;;762.23;;
4202;SDS011;2115;51.038;7.006;2023-07-20T12:13:03;832.40;;;745.13;;
4202;SDS011;2115;51.038;7.006;2023-07-20T12:15:29;826.13;;;739.37;;
4202;SDS011;2115;51.038;7.006;2023-07-20T12:17:59;838.83;;;751.80;;
4202;SDS011;2115;51.038;7.006;2023-07-20T12:20:29;805.03;;;719.90;;
4202;SDS011;2115;51.038;7.006;2023-07-20T12:22:57;851.40;;;765.20;;
4202;SDS011;2115;51.038;7.006;2023-07-20T12:25:31;850.90;;;763.97;;
4202;SDS011;2115;51.038;7.006;2023-07-20T12:28:00;844.93;;;757.97;;
4202;SDS011;2115;51.038;7.006;2023-07-20T12:30:27;849.53;;;761.93;;
4202;SDS011;2115;51.038;7.006;2023-07-20T12:32:53;842.90;;;755.03;;
4202;SDS011;2115;51.038;7.006;2023-07-20T12:35:18;908.67;;;816.10;;
4202;SDS011;2115;51.038;7.006;2023-07-20T12:37:43;836.17;;;748.20;;
4202;SDS011;2115;51.038;7.006;2023-07-20T12:40:09;839.13;;;751.53;;
4202;SDS011;2115;51.038;7.006;2023-07-20T12:42:35;857.63;;;769.33;;
4202;SDS011;2115;51.038;7.006;2023-07-20T12:45:01;851.07;;;763.30;;
4202;SDS011;2115;51.038;7.006;2023-07-20T12:47:26;867.93;;;778.83;;
4202;SDS011;2115;51.038;7.006;2023-07-20T12:49:52;863.03;;;774.93;;
4202;SDS011;2115;51.038;7.006;2023-07-20T12:52:17;839.90;;;753.57;;
4202;SDS011;2115;51.038;7.006;2023-07-20T12:54:43;851.63;;;765.07;;
4202;SDS011;2115;51.038;7.006;2023-07-20T12:57:08;910.00;;;820.70;;
4202;SDS011;2115;51.038;7.006;2023-07-20T12:59:34;936.60;;;847.20;;
4202;SDS011;2115;51.038;7.006;2023-07-20T13:01:59;919.77;;;830.63;;
4202;SDS011;2115;51.038;7.006;2023-07-20T13:04:25;917.60;;;828.27;;
4202;SDS011;2115;51.038;7.006;2023-07-20T13:06:51;900.10;;;811.30;;
4202;SDS011;2115;51.038;7.006;2023-07-20T13:09:16;919.37;;;829.10;;
4202;SDS011;2115;51.038;7.006;2023-07-20T13:11:44;905.57;;;815.77;;
4202;SDS011;2115;51.038;7.006;2023-07-20T13:14:11;891.00;;;801.33;;
4202;SDS011;2115;51.038;7.006;2023-07-20T13:16:37;878.40;;;790.00;;
4202;SDS011;2115;51.038;7.006;2023-07-20T13:19:05;855.37;;;767.70;;
4202;SDS011;2115;51.038;7.006;2023-07-20T13:21:31;864.07;;;775.73;;
4202;SDS011;2115;51.038;7.006;2023-07-20T13:23:56;867.93;;;778.87;;
4202;SDS011;2115;51.038;7.006;2023-07-20T13:26:22;875.73;;;786.23;;
4202;SDS011;2115;51.038;7.006;2023-07-20T13:28:47;869.70;;;781.63;;
4202;SDS011;2115;51.038;7.006;2023-07-20T13:31:13;858.40;;;770.70;;
4202;SDS011;2115;51.038;7.006;2023-07-20T13:33:38;875.83;;;788.07;;
4202;SDS011;2115;51.038;7.006;2023-07-20T13:36:05;884.53;;;796.23;;
4202;SDS011;2115;51.038;7.006;2023-07-20T13:38:33;921.90;;;832.47;;
4202;SDS011;2115;51.038;7.006;2023-07-20T13:40:58;918.47;;;830.07;;
4202;SDS011;2115;51.038;7.006;2023-07-20T13:43:24;897.07;;;809.00;;
4202;SDS011;2115;51.038;7.006;2023-07-20T13:45:50;966.43;;;873.77;;
4202;SDS011;2115;51.038;7.006;2023-07-20T13:48:15;878.00;;;788.50;;
4202;SDS011;2115;51.038;7.006;2023-07-20T13:50:44;909.30;;;818.03;;
4202;SDS011;2115;51.038;7.006;2023-07-20T13:53:11;870.83;;;782.17;;
4202;SDS011;2115;51.038;7.006;2023-07-20T13:55:37;862.40;;;774.70;;
4202;SDS011;2115;51.038;7.006;2023-07-20T13:58:03;856.70;;;768.60;;
4202;SDS011;2115;51.038;7.006;2023-07-20T14:00:29;855.33;;;767.70;;
4202;SDS011;2115;51.038;7.006;2023-07-20T14:02:58;854.37;;;767.10;;
4202;SDS011;2115;51.038;7.006;2023-07-20T14:05:26;857.00;;;769.50;;
4202;SDS011;2115;51.038;7.006;2023-07-20T14:07:51;975.80;;;881.80;;
4202;SDS011;2115;51.038;7.006;2023-07-20T14:10:17;909.27;;;819.43;;
4202;SDS011;2115;51.038;7.006;2023-07-20T14:12:43;897.80;;;808.33;;
4202;SDS011;2115;51.038;7.006;2023-07-20T14:15:10;905.67;;;817.17;;
4202;SDS011;2115;51.038;7.006;2023-07-20T14:17:35;930.30;;;841.33;;
4202;SDS011;2115;51.038;7.006;2023-07-20T14:20:01;939.57;;;850.00;;
4202;SDS011;2115;51.038;7.006;2023-07-20T14:22:30;942.43;;;851.97;;
4202;SDS011;2115;51.038;7.006;2023-07-20T14:24:55;978.27;;;886.30;;
4202;SDS011;2115;51.038;7.006;2023-07-20T14:27:21;951.47;;;862.17;;
4202;SDS011;2115;51.038;7.006;2023-07-20T14:29:46;934.00;;;845.50;;